createdAt,value
2023-04-15T00:01:12.123Z,100676.00
2023-04-15T00:03:39.424Z,100680.41
2023-04-15T00:06:06.959Z,100677.00
2023-04-15T00:08:34.237Z,100675.31
2023-04-15T00:11:03.384Z,100669.28
2023-04-15T00:13:30.785Z,100664.03
2023-04-15T00:15:58.165Z,100667.56
2023-04-15T00:18:25.533Z,100672.88
2023-04-15T00:20:52.596Z,100669.41
2023-04-15T00:23:19.633Z,100670.34
2023-04-15T00:25:47.077Z,100665.09
2023-04-15T00:28:14.146Z,100670.34
2023-04-15T00:30:41.685Z,100671.28
2023-04-15T00:33:09.949Z,100669.56
2023-04-15T00:35:37.482Z,100672.22
2023-04-15T00:38:06.301Z,100667.91
2023-04-15T00:40:33.516Z,100661.81
2023-04-15T00:43:00.634Z,100671.47
2023-04-15T00:45:31.049Z,100660.22
2023-04-15T00:47:58.688Z,100671.59
2023-04-15T00:50:25.693Z,100666.44
2023-04-15T00:52:52.699Z,100668.22
2023-04-15T00:55:19.747Z,100670.00
2023-04-15T00:57:47.032Z,100668.31
2023-04-15T01:00:23.653Z,100667.56
2023-04-15T01:02:53.260Z,100671.94
2023-04-15T01:05:20.559Z,100671.19
2023-04-15T01:07:48.879Z,100666.84
2023-04-15T01:10:16.156Z,100667.78
2023-04-15T01:12:44.615Z,100666.94
2023-04-15T01:15:11.783Z,100674.88
2023-04-15T01:17:39.893Z,100674.91
2023-04-15T01:20:12.205Z,100679.28
2023-04-15T01:22:40.700Z,100675.84
2023-04-15T01:25:19.750Z,100676.72
2023-04-15T01:27:47.665Z,100676.75
2023-04-15T01:30:15.575Z,100677.59
2023-04-15T01:32:42.688Z,100677.66
2023-04-15T01:35:09.957Z,100682.94
2023-04-15T01:37:37.702Z,100679.41
2023-04-15T01:40:05.566Z,100682.06
2023-04-15T01:42:32.761Z,100680.38
2023-04-15T01:45:00.012Z,100682.13
2023-04-15T01:47:27.092Z,100679.56
2023-04-15T01:49:54.322Z,100691.78
2023-04-15T01:52:22.330Z,100683.09
2023-04-15T01:54:49.308Z,100683.94
2023-04-15T01:57:16.593Z,100676.09
2023-04-15T01:59:43.746Z,100676.09
2023-04-15T02:02:10.824Z,100681.38
2023-04-15T02:04:38.115Z,100676.22
2023-04-15T02:07:05.140Z,100676.28
2023-04-15T02:09:32.102Z,100672.84
2023-04-15T02:11:59.495Z,100683.41
2023-04-15T02:14:27.074Z,100685.19
2023-04-15T02:16:54.769Z,100688.72
2023-04-15T02:19:22.095Z,100686.19
2023-04-15T02:21:49.110Z,100676.63
2023-04-15T02:24:18.210Z,100685.44
2023-04-15T02:26:45.425Z,100680.19
2023-04-15T02:29:12.375Z,100682.81
2023-04-15T02:31:42.228Z,100681.09
2023-04-15T02:34:09.338Z,100685.50
2023-04-15T02:36:36.506Z,100689.00
2023-04-15T02:39:05.596Z,100695.09
2023-04-15T02:41:33.137Z,100693.38
2023-04-15T02:44:00.034Z,100698.59
2023-04-15T02:46:28.562Z,100702.06
2023-04-15T02:48:55.598Z,100698.59
2023-04-15T02:51:24.155Z,100708.22
2023-04-15T02:53:51.216Z,100696.88
2023-04-15T02:56:19.709Z,100710.81
2023-04-15T02:58:47.357Z,100712.59
2023-04-15T03:01:14.772Z,100711.78
2023-04-15T03:03:42.455Z,100713.53
2023-04-15T03:06:09.631Z,100707.44
2023-04-15T03:08:37.428Z,100715.28
2023-04-15T03:11:05.150Z,100720.53
2023-04-15T03:13:36.374Z,100720.50
2023-04-15T03:16:11.195Z,100717.88
2023-04-15T03:18:38.792Z,100717.03
2023-04-15T03:21:06.610Z,100720.56
2023-04-15T03:23:36.224Z,100717.09
2023-04-15T03:26:04.896Z,100731.94
2023-04-15T03:28:33.808Z,100731.97
2023-04-15T03:31:01.832Z,100730.22
2023-04-15T03:33:28.872Z,100742.41
2023-04-15T03:35:55.994Z,100745.03
2023-04-15T03:38:22.951Z,100737.16
2023-04-15T03:40:49.886Z,100744.16
2023-04-15T03:43:17.139Z,100738.94
2023-04-15T03:45:44.134Z,100741.63
2023-04-15T03:48:17.905Z,100735.50
2023-04-15T03:50:46.295Z,100745.97
2023-04-15T03:53:13.334Z,100752.06
2023-04-15T03:55:40.302Z,100754.78
2023-04-15T03:58:07.354Z,100756.56
2023-04-15T04:00:34.367Z,100765.34
2023-04-15T04:03:01.856Z,100764.53
2023-04-15T04:05:29.025Z,100763.69
2023-04-15T04:07:55.992Z,100765.47
2023-04-15T04:10:22.966Z,100769.00
2023-04-15T04:12:49.906Z,100771.66
2023-04-15T04:15:17.093Z,100776.09
2023-04-15T04:17:44.165Z,100779.59
2023-04-15T04:20:12.504Z,100775.28
2023-04-15T04:22:41.311Z,100785.75
2023-04-15T04:25:10.281Z,100785.81
2023-04-15T04:27:38.083Z,100785.84
2023-04-15T04:30:06.871Z,100788.50
2023-04-15T04:32:33.948Z,100798.97
2023-04-15T04:35:00.978Z,100800.75
2023-04-15T04:37:27.983Z,100806.00
2023-04-15T04:39:54.968Z,100806.91
2023-04-15T04:42:22.530Z,100800.81
2023-04-15T04:44:49.633Z,100808.66
2023-04-15T04:47:16.627Z,100820.88
2023-04-15T04:49:43.584Z,100817.38
2023-04-15T04:52:10.632Z,100820.03
2023-04-15T04:54:37.569Z,100823.50
2023-04-15T04:57:04.525Z,100822.66
2023-04-15T04:59:31.590Z,100828.72
2023-04-15T05:01:58.690Z,100827.84
2023-04-15T05:04:26.505Z,100841.75
2023-04-15T05:06:53.528Z,100841.72
2023-04-15T05:09:20.611Z,100839.06
2023-04-15T05:11:47.630Z,100845.94
2023-04-15T05:14:14.624Z,100851.06
2023-04-15T05:16:41.649Z,100856.13
2023-04-15T05:19:08.797Z,100855.72
2023-04-15T05:21:37.569Z,100858.47
2023-04-15T05:24:06.961Z,100855.00
2023-04-15T05:26:33.970Z,100851.81
2023-04-15T05:29:01.788Z,100862.69
2023-04-15T05:31:29.152Z,100863.91
2023-04-15T05:33:56.303Z,100864.00
2023-04-15T05:36:23.383Z,100865.81
2023-04-15T05:38:51.020Z,100872.47
2023-04-15T05:41:19.824Z,100878.00
2023-04-15T05:43:47.123Z,100879.84
2023-04-15T05:46:14.248Z,100882.50
2023-04-15T05:48:41.708Z,100886.78
2023-04-15T05:51:09.425Z,100895.44
2023-04-15T05:53:36.511Z,100885.66
2023-04-15T05:56:04.072Z,100896.00
2023-04-15T05:58:36.381Z,100901.09
2023-04-15T06:01:06.428Z,100900.06
2023-04-15T06:03:33.716Z,100910.34
2023-04-15T06:06:01.452Z,100913.75
2023-04-15T06:08:28.484Z,100911.06
2023-04-15T06:10:55.953Z,100917.94
2023-04-15T06:13:22.915Z,100919.41
2023-04-15T06:15:49.980Z,100923.47
2023-04-15T06:18:16.979Z,100929.34
2023-04-15T06:20:49.408Z,100931.69
2023-04-15T06:23:16.359Z,100940.41
2023-04-15T06:25:43.503Z,100940.41
2023-04-15T06:28:10.644Z,100948.22
2023-04-15T06:30:38.457Z,100957.91
2023-04-15T06:33:06.585Z,100958.66
2023-04-15T06:35:33.647Z,100965.59
2023-04-15T06:38:00.749Z,100967.28
2023-04-15T06:40:28.228Z,100968.09
2023-04-15T06:42:55.666Z,100964.50
2023-04-15T06:45:22.796Z,100975.88
2023-04-15T06:47:49.761Z,100980.28
2023-04-15T06:50:16.761Z,100982.88
2023-04-15T06:52:44.035Z,100987.31
2023-04-15T06:55:11.394Z,100999.47
2023-04-15T06:57:38.374Z,101003.94
2023-04-15T07:00:06.347Z,101010.13
2023-04-15T07:02:34.167Z,101009.25
2023-04-15T07:05:01.680Z,101011.81
2023-04-15T07:07:28.748Z,101010.91
2023-04-15T07:09:55.781Z,101013.47
2023-04-15T07:12:22.912Z,101020.50
2023-04-15T07:14:50.102Z,101022.25
2023-04-15T07:17:17.147Z,101022.16
2023-04-15T07:19:44.124Z,101033.50
2023-04-15T07:22:11.173Z,101028.16
2023-04-15T07:24:38.117Z,101035.97
2023-04-15T07:27:05.148Z,101030.59
2023-04-15T07:29:32.177Z,101046.22
2023-04-15T07:31:59.266Z,101044.41
2023-04-15T07:34:26.378Z,101047.72
2023-04-15T07:36:53.381Z,101052.00
2023-04-15T07:39:20.428Z,101057.06
2023-04-15T07:41:47.451Z,101055.06
2023-04-15T07:44:14.693Z,101054.94
2023-04-15T07:46:41.956Z,101062.66
2023-04-15T07:49:09.465Z,101062.44
2023-04-15T07:51:37.277Z,101060.47
2023-04-15T07:54:04.363Z,101061.16
2023-04-15T07:56:31.390Z,101067.03
2023-04-15T07:58:58.371Z,101060.66
2023-04-15T08:01:26.088Z,101065.63
2023-04-15T08:03:53.459Z,101074.97
2023-04-15T08:06:21.009Z,101078.13
2023-04-15T08:08:48.314Z,101081.16
2023-04-15T08:11:15.600Z,101079.94
2023-04-15T08:13:42.851Z,101092.94
2023-04-15T08:16:25.954Z,101089.22
2023-04-15T08:18:55.986Z,101086.53
2023-04-15T08:21:25.892Z,101091.78
2023-04-15T08:23:56.578Z,101094.41
2023-04-15T08:26:23.698Z,101089.03
2023-04-15T08:28:51.233Z,101092.28
2023-04-15T08:31:19.377Z,101098.78
2023-04-15T08:33:46.820Z,101096.75
2023-04-15T08:36:14.120Z,101094.81
2023-04-15T08:38:41.831Z,101104.41
2023-04-15T08:41:23.842Z,101104.88
2023-04-15T08:43:59.166Z,101107.47
2023-04-15T08:46:26.726Z,101115.22
2023-04-15T08:48:58.307Z,101107.16
2023-04-15T08:51:26.372Z,101118.66
2023-04-15T08:53:53.527Z,101119.44
2023-04-15T08:56:26.853Z,101122.84
2023-04-15T08:58:54.745Z,101125.16
2023-04-15T09:01:23.151Z,101121.97
2023-04-15T09:03:54.681Z,101136.66
2023-04-15T09:06:23.151Z,101140.22
2023-04-15T09:08:51.798Z,101138.84
2023-04-15T09:11:21.071Z,101138.91
2023-04-15T09:13:49.245Z,101148.38
2023-04-15T09:16:16.383Z,101145.59
2023-04-15T09:18:43.454Z,101150.03
2023-04-15T09:21:14.037Z,101152.44
2023-04-15T09:23:59.853Z,101160.06
2023-04-15T09:26:45.492Z,101165.22
2023-04-15T09:29:13.863Z,101166.38
2023-04-15T09:31:42.808Z,101166.41
2023-04-15T09:34:10.046Z,101164.66
2023-04-15T09:36:52.874Z,101176.03
2023-04-15T09:39:20.601Z,101169.81
2023-04-15T09:41:47.792Z,101170.34
2023-04-15T09:44:26.295Z,101171.09
2023-04-15T09:46:53.547Z,101175.13
2023-04-15T09:49:21.096Z,101182.50
2023-04-15T09:52:01.712Z,101180.63
2023-04-15T09:54:39.184Z,101185.56
2023-04-15T09:57:09.875Z,101187.00
2023-04-15T09:59:37.020Z,101196.13
2023-04-15T10:02:09.905Z,101192.91
2023-04-15T10:04:42.033Z,101190.47
2023-04-15T10:07:10.089Z,101188.69
2023-04-15T10:09:39.569Z,101189.78
2023-04-15T10:12:07.362Z,101201.31
2023-04-15T10:14:38.613Z,101203.19
2023-04-15T10:17:11.082Z,101197.16
2023-04-15T10:19:38.462Z,101203.59
2023-04-15T10:22:06.534Z,101205.44
2023-04-15T10:24:34.308Z,101207.88
2023-04-15T10:27:04.527Z,101205.69
2023-04-15T10:29:31.613Z,101216.28
2023-04-15T10:32:03.054Z,101204.66
2023-04-15T10:34:32.353Z,101207.88
2023-04-15T10:37:03.901Z,101220.56
2023-04-15T10:39:37.415Z,101221.78
2023-04-15T10:42:19.717Z,101224.59
2023-04-15T10:44:52.390Z,101222.22
2023-04-15T10:47:22.108Z,101223.22
2023-04-15T10:50:00.429Z,101226.88
2023-04-15T10:52:29.445Z,101225.72
2023-04-15T10:55:24.175Z,101228.91
2023-04-15T10:57:59.612Z,101230.00
2023-04-15T11:00:32.737Z,101230.38
2023-04-15T11:03:08.188Z,101232.84
2023-04-15T11:05:54.290Z,101242.88
2023-04-15T11:08:56.564Z,101244.78
2023-04-15T11:11:23.549Z,101238.94
2023-04-15T11:13:52.537Z,101247.00
2023-04-15T11:16:20.058Z,101238.88
2023-04-15T11:18:56.775Z,101245.53
2023-04-15T11:21:28.314Z,101244.81
2023-04-15T11:23:55.344Z,101250.34
2023-04-15T11:26:27.396Z,101245.50
2023-04-15T11:28:54.892Z,101253.38
2023-04-15T11:31:23.977Z,101255.94
2023-04-15T11:33:55.581Z,101258.59
2023-04-15T11:36:27.941Z,101264.53
2023-04-15T11:38:57.446Z,101257.97
2023-04-15T11:41:24.528Z,101263.94
2023-04-15T11:43:52.587Z,101258.72
2023-04-15T11:46:21.425Z,101266.13
2023-04-15T11:48:48.498Z,101268.00
2023-04-15T11:51:15.709Z,101275.69
2023-04-15T11:53:51.012Z,101266.28
2023-04-15T11:56:24.134Z,101262.84
2023-04-15T11:58:58.713Z,101262.03
2023-04-15T12:01:46.707Z,101270.25
2023-04-15T12:04:20.888Z,101271.19
2023-04-15T12:06:50.329Z,101271.16
2023-04-15T12:09:17.443Z,101282.91
2023-04-15T12:11:55.570Z,101273.22
2023-04-15T12:14:33.920Z,101281.63
2023-04-15T12:17:04.911Z,101279.66
2023-04-15T12:19:41.696Z,101284.06
2023-04-15T12:22:17.359Z,101280.44
2023-04-15T12:24:48.716Z,101285.25
2023-04-15T12:27:17.665Z,101291.81
2023-04-15T12:29:44.925Z,101292.31
2023-04-15T12:32:22.810Z,101296.50
2023-04-15T12:34:53.191Z,101292.41
2023-04-15T12:37:21.046Z,101294.88
2023-04-15T12:39:50.439Z,101297.75
2023-04-15T12:42:18.280Z,101301.75
2023-04-15T12:44:45.788Z,101303.47
2023-04-15T12:47:13.445Z,101302.41
2023-04-15T12:49:41.075Z,101307.59
2023-04-15T12:52:08.395Z,101319.31
2023-04-15T12:54:36.338Z,101317.88
2023-04-15T12:57:06.839Z,101328.81
2023-04-15T12:59:36.517Z,101332.63
2023-04-15T13:02:04.361Z,101320.03
2023-04-15T13:04:32.016Z,101327.69
2023-04-15T13:06:59.215Z,101328.00
2023-04-15T13:09:26.410Z,101330.91
2023-04-15T13:11:54.323Z,101334.66
2023-04-15T13:14:21.571Z,101344.69
2023-04-15T13:16:48.761Z,101348.06
2023-04-15T13:19:15.910Z,101341.28
2023-04-15T13:21:43.038Z,101342.22
2023-04-15T13:24:10.126Z,101343.41
2023-04-15T13:26:37.784Z,101350.84
2023-04-15T13:29:05.419Z,101356.31
2023-04-15T13:31:32.731Z,101349.09
2023-04-15T13:33:59.850Z,101348.31
2023-04-15T13:36:27.371Z,101359.81
2023-04-15T13:38:54.575Z,101359.22
2023-04-15T13:41:21.885Z,101360.97
2023-04-15T13:43:49.750Z,101356.78
2023-04-15T13:46:16.947Z,101348.84
2023-04-15T13:48:44.003Z,101357.03
2023-04-15T13:51:11.136Z,101374.59
2023-04-15T13:53:39.580Z,101368.91
2023-04-15T13:56:08.400Z,101382.06
2023-04-15T13:58:37.469Z,101379.88
2023-04-15T14:01:07.038Z,101376.19
2023-04-15T14:03:36.438Z,101384.66
2023-04-15T14:06:05.721Z,101385.22
2023-04-15T14:08:33.349Z,101393.84
2023-04-15T14:11:01.107Z,101386.38
2023-04-15T14:13:28.399Z,101385.72
2023-04-15T14:15:56.860Z,101402.13
2023-04-15T14:18:23.967Z,101397.47
2023-04-15T14:20:51.072Z,101403.38
2023-04-15T14:23:18.431Z,101412.31
2023-04-15T14:25:47.897Z,101411.56
2023-04-15T14:28:15.801Z,101422.00
2023-04-15T14:30:42.985Z,101417.69
2023-04-15T14:33:10.536Z,101417.44
2023-04-15T14:35:37.997Z,101423.31
2023-04-15T14:38:06.158Z,101432.81
2023-04-15T14:40:34.066Z,101438.75
2023-04-15T14:43:01.307Z,101438.81
2023-04-15T14:45:28.516Z,101437.13
2023-04-15T14:47:55.968Z,101447.56
2023-04-15T14:50:23.354Z,101458.81
2023-04-15T14:52:50.470Z,101454.06
2023-04-15T14:55:17.476Z,101458.22
2023-04-15T14:57:44.424Z,101473.78
2023-04-15T15:00:15.249Z,101477.69
2023-04-15T15:02:43.840Z,101474.38
2023-04-15T15:05:12.111Z,101470.03
2023-04-15T15:07:40.936Z,101486.75
2023-04-15T15:10:08.611Z,101488.34
2023-04-15T15:12:36.214Z,101487.22
2023-04-15T15:15:12.169Z,101488.97
2023-04-15T15:17:39.715Z,101498.19
2023-04-15T15:20:07.819Z,101511.41
2023-04-15T15:22:34.786Z,101500.97
2023-04-15T15:25:02.167Z,101498.50
2023-04-15T15:27:29.206Z,101515.25
2023-04-15T15:29:56.610Z,101526.06
2023-04-15T15:32:23.628Z,101516.69
2023-04-15T15:34:52.591Z,101524.78
2023-04-15T15:37:19.576Z,101525.91
2023-04-15T15:39:47.095Z,101527.03
2023-04-15T15:42:14.077Z,101536.25
2023-04-15T15:44:41.221Z,101541.78
2023-04-15T15:47:08.559Z,101544.69
2023-04-15T15:49:35.579Z,101552.72
2023-04-15T15:52:02.626Z,101540.69
2023-04-15T15:54:29.790Z,101541.91
2023-04-15T15:56:57.616Z,101553.69
2023-04-15T15:59:28.096Z,101567.88
2023-04-15T16:01:55.258Z,101563.63
2023-04-15T16:04:22.508Z,101570.66
2023-04-15T16:06:50.029Z,101573.34
2023-04-15T16:09:18.002Z,101574.31
2023-04-15T16:11:45.970Z,101576.19
2023-04-15T16:14:14.097Z,101565.69
2023-04-15T16:16:41.291Z,101588.63
2023-04-15T16:19:08.393Z,101584.28
2023-04-15T16:21:35.593Z,101592.19
2023-04-15T16:24:02.978Z,101600.06
2023-04-15T16:26:30.651Z,101595.63
2023-04-15T16:28:57.692Z,101588.63
2023-04-15T16:31:24.771Z,101593.09
2023-04-15T16:33:51.801Z,101594.97
2023-04-15T16:36:18.813Z,101601.34
2023-04-15T16:38:48.375Z,101604.94
2023-04-15T16:41:15.948Z,101613.72
2023-04-15T16:43:42.928Z,101611.19
2023-04-15T16:46:10.123Z,101613.84
2023-04-15T16:48:37.598Z,101620.81
2023-04-15T16:51:05.176Z,101619.91
2023-04-15T16:53:32.259Z,101626.22
2023-04-15T16:55:59.413Z,101628.09
2023-04-15T16:58:27.702Z,101634.28
2023-04-15T17:00:54.729Z,101637.84
2023-04-15T17:03:21.894Z,101632.72
2023-04-15T17:05:49.143Z,101635.47
2023-04-15T17:08:16.306Z,101645.22
2023-04-15T17:10:43.470Z,101647.97
2023-04-15T17:13:10.613Z,101647.22
2023-04-15T17:15:37.916Z,101650.00
2023-04-15T17:18:05.452Z,101658.97
2023-04-15T17:20:32.611Z,101656.44
2023-04-15T17:23:00.410Z,101655.66
2023-04-15T17:25:27.631Z,101660.13
2023-04-15T17:27:55.011Z,101649.69
2023-04-15T17:30:23.617Z,101653.28
2023-04-15T17:32:51.976Z,101665.59
2023-04-15T17:35:19.204Z,101670.03
2023-04-15T17:37:46.639Z,101663.91
2023-04-15T17:40:14.772Z,101676.25
2023-04-15T17:42:41.946Z,101676.25
2023-04-15T17:45:10.791Z,101687.66
2023-04-15T17:47:37.934Z,101676.38
2023-04-15T17:50:05.893Z,101677.31
2023-04-15T17:52:33.053Z,101683.47
2023-04-15T17:55:00.027Z,101691.44
2023-04-15T17:57:27.105Z,101700.22
2023-04-15T17:59:54.187Z,101700.25
2023-04-15T18:02:21.386Z,101696.84
2023-04-15T18:04:48.704Z,101700.38
2023-04-15T18:07:16.060Z,101709.16
2023-04-15T18:09:44.305Z,101716.28
2023-04-15T18:12:11.695Z,101714.59
2023-04-15T18:14:39.148Z,101719.91
2023-04-15T18:17:07.226Z,101725.25
2023-04-15T18:19:34.298Z,101732.28
2023-04-15T18:22:01.392Z,101731.41
2023-04-15T18:24:30.909Z,101736.72
2023-04-15T18:26:59.279Z,101739.41
2023-04-15T18:29:26.498Z,101745.56
2023-04-15T18:31:53.829Z,101762.19
2023-04-15T18:34:20.884Z,101759.66
2023-04-15T18:36:47.987Z,101756.19
2023-04-15T18:39:15.570Z,101761.47
2023-04-15T18:41:42.601Z,101764.13
2023-04-15T18:44:09.673Z,101771.22
2023-04-15T18:46:36.745Z,101769.50
2023-04-15T18:49:04.351Z,101770.47
2023-04-15T18:51:32.640Z,101789.75
2023-04-15T18:53:59.684Z,101786.31
2023-04-15T18:56:26.742Z,101786.38
2023-04-15T18:59:28.516Z,101788.16
2023-04-15T19:01:41.051Z,101799.56
2023-04-15T19:04:08.414Z,101796.94
2023-04-15T19:06:36.240Z,101803.13
2023-04-15T19:09:03.373Z,101806.63
2023-04-15T19:11:31.249Z,101812.78
2023-04-15T19:13:58.210Z,101822.44
2023-04-15T19:16:25.181Z,101813.72
2023-04-15T19:18:52.248Z,101821.59
2023-04-15T19:21:19.435Z,101825.13
2023-04-15T19:23:47.477Z,101821.63
2023-04-15T19:26:14.484Z,101826.03
2023-04-15T19:28:41.626Z,101825.16
2023-04-15T19:31:08.664Z,101827.81
2023-04-15T19:33:35.708Z,101831.31
2023-04-15T19:36:06.225Z,101835.69
2023-04-15T19:38:37.813Z,101830.47
2023-04-15T19:41:04.824Z,101835.72
2023-04-15T19:43:32.826Z,101833.09
2023-04-15T19:46:00.088Z,101840.94
2023-04-15T19:48:27.290Z,101852.34
2023-04-15T19:50:54.351Z,101846.22
2023-04-15T19:53:21.330Z,101849.75
2023-04-15T19:55:48.816Z,101851.50
2023-04-15T19:58:16.153Z,101845.31
2023-04-15T20:00:43.229Z,101840.97
2023-04-15T20:03:10.593Z,101844.47
2023-04-15T20:05:37.708Z,101844.44
2023-04-15T20:08:04.861Z,101846.22
2023-04-15T20:10:31.997Z,101854.94
2023-04-15T20:12:59.257Z,101853.19
2023-04-15T20:15:26.393Z,101853.19
2023-04-15T20:17:53.538Z,101851.41
2023-04-15T20:20:21.112Z,101851.41
2023-04-15T20:22:48.770Z,101853.16
2023-04-15T20:25:15.848Z,101849.63
2023-04-15T20:27:42.886Z,101865.41
2023-04-15T20:30:10.612Z,101848.75
2023-04-15T20:32:38.626Z,101851.34
2023-04-15T20:35:07.004Z,101851.38
2023-04-15T20:37:34.948Z,101849.59
2023-04-15T20:40:02.428Z,101859.22
2023-04-15T20:42:36.984Z,101857.47
2023-04-15T20:45:04.489Z,101855.72
2023-04-15T20:47:31.524Z,101861.84
2023-04-15T20:49:58.589Z,101853.09
2023-04-15T20:52:25.598Z,101853.09
2023-04-15T20:54:52.573Z,101859.22
2023-04-15T20:57:20.392Z,101862.69
2023-04-15T20:59:47.457Z,101860.06
2023-04-15T21:02:14.550Z,101864.47
2023-04-15T21:04:41.633Z,101855.69
2023-04-15T21:07:09.871Z,101860.06
2023-04-15T21:09:38.402Z,101861.81
2023-04-15T21:12:05.477Z,101865.34
2023-04-15T21:14:32.503Z,101867.09
2023-04-15T21:16:59.653Z,101864.47
2023-04-15T21:19:26.740Z,101867.13
2023-04-15T21:21:53.691Z,101874.13
2023-04-15T21:24:20.769Z,101868.88
2023-04-15T21:26:47.801Z,101875.91
2023-04-15T21:29:14.931Z,101880.28
2023-04-15T21:31:42.247Z,101881.16
2023-04-15T21:34:10.009Z,101888.19
2023-04-15T21:36:38.399Z,101902.19
2023-04-15T21:39:06.213Z,101890.84
2023-04-15T21:41:33.363Z,101893.47
2023-04-15T21:44:00.352Z,101902.25
2023-04-15T21:46:32.611Z,101902.25
2023-04-15T21:49:00.518Z,101901.38
2023-04-15T21:51:27.757Z,101902.22
2023-04-15T21:53:54.893Z,101908.34
2023-04-15T21:56:24.124Z,101906.56
2023-04-15T21:58:56.955Z,101911.81
2023-04-15T22:01:24.966Z,101922.34
2023-04-15T22:03:53.087Z,101915.31
2023-04-15T22:06:20.452Z,101913.56
2023-04-15T22:08:56.683Z,101916.19
2023-04-15T22:11:29.590Z,101924.06
2023-04-15T22:13:57.856Z,101920.56
2023-04-15T22:16:26.529Z,101925.81
2023-04-15T22:18:54.822Z,101925.81
2023-04-15T22:21:22.198Z,101918.81
2023-04-15T22:23:49.666Z,101918.81
2023-04-15T22:26:16.825Z,101923.19
2023-04-15T22:28:43.753Z,101919.69
2023-04-15T22:31:11.064Z,101915.34
2023-04-15T22:33:38.828Z,101928.47
2023-04-15T22:36:06.234Z,101925.84
2023-04-15T22:38:33.453Z,101927.59
2023-04-15T22:41:00.398Z,101929.34
2023-04-15T22:43:27.769Z,101928.47
2023-04-15T22:45:55.225Z,101938.09
2023-04-15T22:48:23.127Z,101932.84
2023-04-15T22:50:50.548Z,101933.72
2023-04-15T22:53:18.123Z,101938.09
2023-04-15T22:55:47.105Z,101938.09
2023-04-15T22:58:15.839Z,101946.88
2023-04-15T23:00:42.891Z,101946.00
2023-04-15T23:03:10.932Z,101943.38
2023-04-15T23:05:40.007Z,101948.63
2023-04-15T23:08:08.172Z,101959.13
2023-04-15T23:10:35.477Z,101953.88
2023-04-15T23:13:02.430Z,101958.25
2023-04-15T23:15:29.393Z,101950.41
2023-04-15T23:17:56.398Z,101966.13
2023-04-15T23:20:23.415Z,101959.13
2023-04-15T23:22:50.469Z,101958.25
2023-04-15T23:25:17.506Z,101960.88
2023-04-15T23:27:44.536Z,101966.16
2023-04-15T23:30:11.612Z,101967.00
2023-04-15T23:32:38.752Z,101953.88
2023-04-15T23:35:06.149Z,101964.38
2023-04-15T23:37:33.224Z,101960.00
2023-04-15T23:40:00.233Z,101961.75
2023-04-15T23:42:27.251Z,101964.41
2023-04-15T23:44:54.317Z,101966.13
2023-04-15T23:47:21.866Z,101967.00
2023-04-15T23:49:48.793Z,101970.50
2023-04-15T23:52:15.952Z,101973.16
2023-04-15T23:54:42.979Z,101974.00
2023-04-15T23:57:10.065Z,101984.53
2023-04-15T23:59:37.108Z,101973.13
